sensor_id;sensor_type;location;lat;lon;timestamp;pressure;altitude;pressure_sealevel;temperature;humidity
24486;BME280;13449;49.374;8.584;2023-04-16T00:02:16;100619.19;;;9.50;100.00
24486;BME280;13449;49.374;8.584;2023-04-16T00:04:45;100619.16;;;9.42;100.00
24486;BME280;13449;49.374;8.584;2023-04-16T00:07:11;100612.94;;;9.59;100.00
24486;BME280;13449;49.374;8.584;2023-04-16T00:09:40;100614.41;;;9.53;100.00
24486;BME280;13449;49.374;8.584;2023-04-16T00:12:07;100618.50;;;9.48;100.00
24486;BME280;13449;49.374;8.584;2023-04-16T00:14:36;100618.84;;;9.45;100.00
24486;BME280;13449;49.374;8.584;2023-04-16T00:17:05;100622.47;;;9.44;100.00
24486;BME280;13449;49.374;8.584;2023-04-16T00:19:31;100620.81;;;9.43;100.00
24486;BME280;13449;49.374;8.584;2023-04-16T00:22:01;100627.72;;;9.35;100.00
24486;BME280;13449;49.374;8.584;2023-04-16T00:24:27;100624.59;;;9.40;100.00
24486;BME280;13449;49.374;8.584;2023-04-16T00:26:54;100624.13;;;9.36;100.00
24486;BME280;13449;49.374;8.584;2023-04-16T00:29:21;100620.16;;;9.24;100.00
24486;BME280;13449;49.374;8.584;2023-04-16T00:31:48;100614.25;;;9.30;100.00
24486;BME280;13449;49.374;8.584;2023-04-16T00:34:15;100623.09;;;9.29;100.00
24486;BME280;13449;49.374;8.584;2023-04-16T00:36:41;100626.91;;;9.27;100.00
24486;BME280;13449;49.374;8.584;2023-04-16T00:39:08;100628.56;;;9.36;100.00
24486;BME280;13449;49.374;8.584;2023-04-16T00:41:36;100622.94;;;9.31;100.00
24486;BME280;13449;49.374;8.584;2023-04-16T00:44:03;100627.88;;;9.26;100.00
24486;BME280;13449;49.374;8.584;2023-04-16T00:46:32;100629.69;;;9.25;100.00
24486;BME280;13449;49.374;8.584;2023-04-16T00:49:03;100629.03;;;9.23;100.00
24486;BME280;13449;49.374;8.584;2023-04-16T00:51:30;100624.91;;;9.21;100.00
24486;BME280;13449;49.374;8.584;2023-04-16T00:53:59;100631.97;;;9.28;100.00
24486;BME280;13449;49.374;8.584;2023-04-16T00:56:29;100628.22;;;9.31;100.00
24486;BME280;13449;49.374;8.584;2023-04-16T00:58:56;100628.53;;;9.44;100.00
24486;BME280;13449;49.374;8.584;2023-04-16T01:01:22;100630.84;;;9.31;100.00
24486;BME280;13449;49.374;8.584;2023-04-16T01:03:49;100633.28;;;9.32;100.00
24486;BME280;13449;49.374;8.584;2023-04-16T01:06:16;100638.22;;;9.35;100.00
24486;BME280;13449;49.374;8.584;2023-04-16T01:08:44;100638.53;;;9.32;100.00
24486;BME280;13449;49.374;8.584;2023-04-16T01:11:15;100637.59;;;9.33;100.00
24486;BME280;13449;49.374;8.584;2023-04-16T01:13:41;100641.81;;;9.18;100.00
24486;BME280;13449;49.374;8.584;2023-04-16T01:16:10;100638.72;;;9.15;100.00
24486;BME280;13449;49.374;8.584;2023-04-16T01:18:37;100632.78;;;9.12;100.00
24486;BME280;13449;49.374;8.584;2023-04-16T01:21:04;100628.69;;;9.10;100.00
24486;BME280;13449;49.374;8.584;2023-04-16T01:23:31;100629.47;;;9.02;100.00
24486;BME280;13449;49.374;8.584;2023-04-16T01:25:58;100636.56;;;9.10;100.00
24486;BME280;13449;49.374;8.584;2023-04-16T01:28:25;100632.09;;;9.02;100.00
24486;BME280;13449;49.374;8.584;2023-04-16T01:30:51;100635.25;;;9.14;100.00
24486;BME280;13449;49.374;8.584;2023-04-16T01:33:20;100645.28;;;9.10;100.00
24486;BME280;13449;49.374;8.584;2023-04-16T01:35:47;100641.66;;;9.11;100.00
24486;BME280;13449;49.374;8.584;2023-04-16T01:38:13;100648.06;;;9.09;100.00
24486;BME280;13449;49.374;8.584;2023-04-16T01:40:40;100641.81;;;9.02;100.00
24486;BME280;13449;49.374;8.584;2023-04-16T01:43:06;100649.53;;;9.11;100.00
24486;BME280;13449;49.374;8.584;2023-04-16T01:45:34;100649.19;;;8.98;100.00
24486;BME280;13449;49.374;8.584;2023-04-16T01:48:03;100650.84;;;9.16;100.00
24486;BME280;13449;49.374;8.584;2023-04-16T01:50:32;100655.13;;;9.00;100.00
24486;BME280;13449;49.374;8.584;2023-04-16T01:52:59;100659.69;;;8.98;100.00
24486;BME280;13449;49.374;8.584;2023-04-16T01:55:27;100656.94;;;9.08;100.00
24486;BME280;13449;49.374;8.584;2023-04-16T01:57:53;100658.22;;;8.96;100.00
24486;BME280;13449;49.374;8.584;2023-04-16T02:00:20;100659.34;;;8.93;100.00
24486;BME280;13449;49.374;8.584;2023-04-16T02:02:46;100659.34;;;8.93;100.00
24486;BME280;13449;49.374;8.584;2023-04-16T02:05:14;100658.69;;;8.91;100.00
24486;BME280;13449;49.374;8.584;2023-04-16T02:07:41;100664.56;;;8.77;100.00
24486;BME280;13449;49.374;8.584;2023-04-16T02:10:08;100658.97;;;8.80;100.00
24486;BME280;13449;49.374;8.584;2023-04-16T02:12:35;100661.47;;;8.81;100.00
24486;BME280;13449;49.374;8.584;2023-04-16T02:15:05;100663.59;;;8.78;100.00
24486;BME280;13449;49.374;8.584;2023-04-16T02:17:32;100660.66;;;8.81;100.00
24486;BME280;13449;49.374;8.584;2023-04-16T02:19:58;100660.97;;;8.78;100.00
24486;BME280;13449;49.374;8.584;2023-04-16T02:22:25;100657.50;;;8.77;100.00
24486;BME280;13449;49.374;8.584;2023-04-16T02:24:51;100654.41;;;8.90;100.00
24486;BME280;13449;49.374;8.584;2023-04-16T02:27:18;100667.03;;;8.86;100.00
24486;BME280;13449;49.374;8.584;2023-04-16T02:29:47;100670.16;;;8.90;100.00
24486;BME280;13449;49.374;8.584;2023-04-16T02:32:16;100664.91;;;8.82;100.00
24486;BME280;13449;49.374;8.584;2023-04-16T02:34:45;100666.22;;;8.78;100.00
24486;BME280;13449;49.374;8.584;2023-04-16T02:37:14;100670.00;;;8.83;100.00
24486;BME280;13449;49.374;8.584;2023-04-16T02:39:43;100672.78;;;8.82;100.00
24486;BME280;13449;49.374;8.584;2023-04-16T02:42:10;100669.81;;;8.77;100.00
24486;BME280;13449;49.374;8.584;2023-04-16T02:44:36;100669.16;;;8.83;100.00
24486;BME280;13449;49.374;8.584;2023-04-16T02:47:03;100669.66;;;8.78;100.00
24486;BME280;13449;49.374;8.584;2023-04-16T02:49:31;100672.44;;;8.77;100.00
24486;BME280;13449;49.374;8.584;2023-04-16T02:51:58;100672.44;;;8.77;100.00
24486;BME280;13449;49.374;8.584;2023-04-16T02:54:24;100674.91;;;8.78;100.00
24486;BME280;13449;49.374;8.584;2023-04-16T02:56:51;100679.16;;;8.71;100.00
24486;BME280;13449;49.374;8.584;2023-04-16T02:59:20;100674.44;;;8.83;100.00
24486;BME280;13449;49.374;8.584;2023-04-16T03:01:46;100665.72;;;8.82;100.00
24486;BME280;13449;49.374;8.584;2023-04-16T03:04:13;100677.84;;;8.75;100.00
24486;BME280;13449;49.374;8.584;2023-04-16T03:06:39;100669.47;;;8.72;100.00
24486;BME280;13449;49.374;8.584;2023-04-16T03:09:06;100672.09;;;8.72;100.00
24486;BME280;13449;49.374;8.584;2023-04-16T03:11:32;100672.28;;;8.78;100.00
24486;BME280;13449;49.374;8.584;2023-04-16T03:14:01;100672.75;;;8.74;100.00
24486;BME280;13449;49.374;8.584;2023-04-16T03:16:32;100676.03;;;8.76;100.00
24486;BME280;13449;49.374;8.584;2023-04-16T03:19:01;100676.88;;;8.76;100.00
24486;BME280;13449;49.374;8.584;2023-04-16T03:21:27;100679.03;;;8.81;100.00
24486;BME280;13449;49.374;8.584;2023-04-16T03:23:57;100674.09;;;8.86;100.00
24486;BME280;13449;49.374;8.584;2023-04-16T03:26:23;100680.19;;;8.86;100.00
24486;BME280;13449;49.374;8.584;2023-04-16T03:28:49;100676.59;;;8.87;100.00
24486;BME280;13449;49.374;8.584;2023-04-16T03:31:16;100679.22;;;8.87;100.00
24486;BME280;13449;49.374;8.584;2023-04-16T03:33:42;100681.16;;;8.85;100.00
24486;BME280;13449;49.374;8.584;2023-04-16T03:36:09;100683.13;;;8.83;100.00
24486;BME280;13449;49.374;8.584;2023-04-16T03:38:40;100695.44;;;8.83;100.00
24486;BME280;13449;49.374;8.584;2023-04-16T03:41:06;100691.31;;;8.80;100.00
24486;BME280;13449;49.374;8.584;2023-04-16T03:43:33;100695.44;;;8.83;100.00
24486;BME280;13449;49.374;8.584;2023-04-16T03:45:59;100690.06;;;8.93;100.00
24486;BME280;13449;49.374;8.584;2023-04-16T03:48:26;100695.13;;;8.86;100.00
24486;BME280;13449;49.374;8.584;2023-04-16T03:50:52;100695.75;;;8.72;100.00
24486;BME280;13449;49.374;8.584;2023-04-16T03:53:18;100697.88;;;8.68;100.00
24486;BME280;13449;49.374;8.584;2023-04-16T03:55:51;100695.94;;;8.78;100.00
24486;BME280;13449;49.374;8.584;2023-04-16T03:58:18;100705.94;;;8.83;100.00
24486;BME280;13449;49.374;8.584;2023-04-16T04:00:45;100696.38;;;8.74;100.00
24486;BME280;13449;49.374;8.584;2023-04-16T04:03:11;100707.06;;;8.72;100.00
24486;BME280;13449;49.374;8.584;2023-04-16T04:05:39;100704.56;;;8.71;100.00
24486;BME280;13449;49.374;8.584;2023-04-16T04:08:06;100702.25;;;8.68;100.00
24486;BME280;13449;49.374;8.584;2023-04-16T04:10:36;100701.94;;;8.71;100.00
24486;BME280;13449;49.374;8.584;2023-04-16T04:13:05;100699.19;;;8.72;100.00
24486;BME280;13449;49.374;8.584;2023-04-16T04:15:32;100703.31;;;8.75;100.00
24486;BME280;13449;49.374;8.584;2023-04-16T04:17:59;100708.06;;;8.71;100.00
24486;BME280;13449;49.374;8.584;2023-04-16T04:20:25;100710.50;;;8.73;100.00
24486;BME280;13449;49.374;8.584;2023-04-16T04:22:52;100705.25;;;8.73;100.00
24486;BME280;13449;49.374;8.584;2023-04-16T04:25:18;100712.81;;;8.76;100.00
24486;BME280;13449;49.374;8.584;2023-04-16T04:27:44;100709.88;;;8.79;100.00
24486;BME280;13449;49.374;8.584;2023-04-16T04:30:11;100714.44;;;8.69;100.00
24486;BME280;13449;49.374;8.584;2023-04-16T04:32:37;100710.03;;;8.77;100.00
24486;BME280;13449;49.374;8.584;2023-04-16T04:35:04;100708.38;;;8.68;100.00
24486;BME280;13449;49.374;8.584;2023-04-16T04:37:33;100714.63;;;8.75;100.00
24486;BME280;13449;49.374;8.584;2023-04-16T04:40:02;100715.44;;;8.76;100.00
24486;BME280;13449;49.374;8.584;2023-04-16T04:42:31;100723.00;;;8.79;100.00
24486;BME280;13449;49.374;8.584;2023-04-16T04:44:57;100722.38;;;8.85;100.00
24486;BME280;13449;49.374;8.584;2023-04-16T04:47:24;100723.69;;;8.81;100.00
24486;BME280;13449;49.374;8.584;2023-04-16T04:49:50;100727.28;;;8.80;100.00
24486;BME280;13449;49.374;8.584;2023-04-16T04:52:17;100726.31;;;8.81;100.00
24486;BME280;13449;49.374;8.584;2023-04-16T04:54:47;100736.16;;;8.87;100.00
24486;BME280;13449;49.374;8.584;2023-04-16T04:57:16;100737.34;;;8.84;100.00
24486;BME280;13449;49.374;8.584;2023-04-16T04:59:45;100734.91;;;8.91;100.00
24486;BME280;13449;49.374;8.584;2023-04-16T05:02:12;100743.09;;;8.88;100.00
24486;BME280;13449;49.374;8.584;2023-04-16T05:04:39;100737.16;;;8.86;100.00
24486;BME280;13449;49.374;8.584;2023-04-16T05:07:05;100742.28;;;8.96;100.00
24486;BME280;13449;49.374;8.584;2023-04-16T05:09:34;100742.16;;;8.97;100.00
24486;BME280;13449;49.374;8.584;2023-04-16T05:12:01;100757.56;;;8.92;100.00
24486;BME280;13449;49.374;8.584;2023-04-16T05:14:27;100745.22;;;8.84;100.00
24486;BME280;13449;49.374;8.584;2023-04-16T05:16:59;100749.00;;;8.90;100.00
24486;BME280;13449;49.374;8.584;2023-04-16T05:19:28;100744.41;;;8.84;100.00
24486;BME280;13449;49.374;8.584;2023-04-16T05:21:57;100751.28;;;8.85;100.00
24486;BME280;13449;49.374;8.584;2023-04-16T05:24:24;100753.91;;;8.85;100.00
24486;BME280;13449;49.374;8.584;2023-04-16T05:26:50;100753.28;;;8.91;100.00
24486;BME280;13449;49.374;8.584;2023-04-16T05:29:20;100762.56;;;8.77;100.00
24486;BME280;13449;49.374;8.584;2023-04-16T05:31:47;100763.09;;;8.81;100.00
24486;BME280;13449;49.374;8.584;2023-04-16T05:34:13;100767.38;;;8.90;100.00
24486;BME280;13449;49.374;8.584;2023-04-16T05:36:40;100768.19;;;8.82;100.00
24486;BME280;13449;49.374;8.584;2023-04-16T05:39:06;100766.03;;;8.78;100.00
24486;BME280;13449;49.374;8.584;2023-04-16T05:41:33;100766.13;;;8.94;100.00
24486;BME280;13449;49.374;8.584;2023-04-16T05:43:59;100755.56;;;8.86;100.00
24486;BME280;13449;49.374;8.584;2023-04-16T05:46:26;100768.50;;;8.79;100.00
24486;BME280;13449;49.374;8.584;2023-04-16T05:48:52;100767.06;;;8.85;100.00
24486;BME280;13449;49.374;8.584;2023-04-16T05:51:22;100766.94;;;8.95;100.00
24486;BME280;13449;49.374;8.584;2023-04-16T05:53:50;100777.25;;;8.88;100.00
24486;BME280;13449;49.374;8.584;2023-04-16T05:56:17;100785.47;;;8.93;100.00
24486;BME280;13449;49.374;8.584;2023-04-16T05:58:49;100773.69;;;9.05;100.00
24486;BME280;13449;49.374;8.584;2023-04-16T06:01:16;100770.75;;;9.08;100.00
24486;BME280;13449;49.374;8.584;2023-04-16T06:03:43;100777.66;;;9.09;100.00
24486;BME280;13449;49.374;8.584;2023-04-16T06:06:13;100777.19;;;9.14;100.00
24486;BME280;13449;49.374;8.584;2023-04-16T06:08:39;100782.25;;;9.07;100.00
24486;BME280;13449;49.374;8.584;2023-04-16T06:11:06;100783.59;;;9.11;100.00
24486;BME280;13449;49.374;8.584;2023-04-16T06:13:32;100786.69;;;9.07;100.00
24486;BME280;13449;49.374;8.584;2023-04-16T06:15:58;100791.84;;;9.17;100.00
24486;BME280;13449;49.374;8.584;2023-04-16T06:18:25;100799.19;;;9.13;100.00
24486;BME280;13449;49.374;8.584;2023-04-16T06:20:51;100794.47;;;9.17;100.00
24486;BME280;13449;49.374;8.584;2023-04-16T06:23:18;100800.34;;;9.10;100.00
24486;BME280;13449;49.374;8.584;2023-04-16T06:25:45;100802.84;;;9.20;100.00
24486;BME280;13449;49.374;8.584;2023-04-16T06:28:11;100804.97;;;9.17;100.00
24486;BME280;13449;49.374;8.584;2023-04-16T06:30:38;100814.44;;;9.09;100.00
24486;BME280;13449;49.374;8.584;2023-04-16T06:33:04;100808.09;;;9.20;100.00
24486;BME280;13449;49.374;8.584;2023-04-16T06:35:33;100809.06;;;9.19;100.00
24486;BME280;13449;49.374;8.584;2023-04-16T06:38:02;100802.53;;;9.23;100.00
24486;BME280;13449;49.374;8.584;2023-04-16T06:40:29;100816.13;;;9.10;100.00
24486;BME280;13449;49.374;8.584;2023-04-16T06:42:55;100820.44;;;9.20;100.00
24486;BME280;13449;49.374;8.584;2023-04-16T06:45:22;100818.06;;;9.08;100.00
24486;BME280;13449;49.374;8.584;2023-04-16T06:47:48;100813.16;;;9.13;100.00
24486;BME280;13449;49.374;8.584;2023-04-16T06:50:16;100825.63;;;9.11;100.00
24486;BME280;13449;49.374;8.584;2023-04-16T06:52:43;100820.38;;;9.11;100.00
24486;BME280;13449;49.374;8.584;2023-04-16T06:55:10;100823.63;;;9.05;100.00
24486;BME280;13449;49.374;8.584;2023-04-16T06:57:39;100831.72;;;9.12;100.00
24486;BME280;13449;49.374;8.584;2023-04-16T07:00:06;100830.53;;;9.06;100.00
24486;BME280;13449;49.374;8.584;2023-04-16T07:02:33;100826.13;;;9.07;100.00
24486;BME280;13449;49.374;8.584;2023-04-16T07:05:00;100829.09;;;9.12;100.00
24486;BME280;13449;49.374;8.584;2023-04-16T07:07:29;100834.00;;;9.07;100.00
24486;BME280;13449;49.374;8.584;2023-04-16T07:09:57;100836.81;;;9.13;100.00
24486;BME280;13449;49.374;8.584;2023-04-16T07:12:24;100845.16;;;9.09;100.00
24486;BME280;13449;49.374;8.584;2023-04-16T07:14:53;100835.47;;;9.09;100.00
24486;BME280;13449;49.374;8.584;2023-04-16T07:17:19;100838.94;;;9.10;100.00
24486;BME280;13449;49.374;8.584;2023-04-16T07:19:46;100831.22;;;9.08;100.00
24486;BME280;13449;49.374;8.584;2023-04-16T07:22:12;100836.31;;;9.10;100.00
24486;BME280;13449;49.374;8.584;2023-04-16T07:24:39;100833.88;;;9.17;100.00
24486;BME280;13449;49.374;8.584;2023-04-16T07:27:05;100843.41;;;9.18;100.00
24486;BME280;13449;49.374;8.584;2023-04-16T07:29:32;100839.91;;;9.09;100.00
24486;BME280;13449;49.374;8.584;2023-04-16T07:31:58;100846.28;;;9.06;100.00
24486;BME280;13449;49.374;8.584;2023-04-16T07:34:25;100840.22;;;9.06;100.00
24486;BME280;13449;49.374;8.584;2023-04-16T07:36:51;100850.91;;;9.04;100.00
24486;BME280;13449;49.374;8.584;2023-04-16T07:39:18;100850.66;;;9.24;100.00
24486;BME280;13449;49.374;8.584;2023-04-16T07:41:44;100851.63;;;9.23;100.00
24486;BME280;13449;49.374;8.584;2023-04-16T07:44:11;100852.97;;;9.27;100.00
24486;BME280;13449;49.374;8.584;2023-04-16T07:46:37;100843.75;;;9.23;100.00
24486;BME280;13449;49.374;8.584;2023-04-16T07:49:14;100855.56;;;9.19;100.00
24486;BME280;13449;49.374;8.584;2023-04-16T07:51:41;100850.00;;;9.22;100.00
24486;BME280;13449;49.374;8.584;2023-04-16T07:54:09;100852.97;;;9.27;100.00
24486;BME280;13449;49.374;8.584;2023-04-16T07:56:35;100848.06;;;9.32;100.00
24486;BME280;13449;49.374;8.584;2023-04-16T07:59:02;100854.81;;;9.34;100.00
24486;BME280;13449;49.374;8.584;2023-04-16T08:01:46;100854.69;;;9.44;100.00
24486;BME280;13449;49.374;8.584;2023-04-16T08:04:13;100859.81;;;9.46;100.00
24486;BME280;13449;49.374;8.584;2023-04-16T08:06:42;100857.19;;;9.54;100.00
24486;BME280;13449;49.374;8.584;2023-04-16T08:09:08;100855.22;;;9.56;100.00
24486;BME280;13449;49.374;8.584;2023-04-16T08:11:35;100864.13;;;9.63;100.00
24486;BME280;13449;49.374;8.584;2023-04-16T08:14:02;100862.50;;;9.70;100.00
24486;BME280;13449;49.374;8.584;2023-04-16T08:16:31;100861.69;;;9.70;100.00
24486;BME280;13449;49.374;8.584;2023-04-16T08:18:57;100865.16;;;9.78;100.00
24486;BME280;13449;49.374;8.584;2023-04-16T08:21:26;100868.63;;;9.79;100.00
24486;BME280;13449;49.374;8.584;2023-04-16T08:23:53;100879.16;;;9.87;100.00
24486;BME280;13449;49.374;8.584;2023-04-16T08:26:19;100870.28;;;9.96;100.00
24486;BME280;13449;49.374;8.584;2023-04-16T08:28:46;100875.56;;;10.13;100.00
24486;BME280;13449;49.374;8.584;2023-04-16T08:31:15;100885.09;;;9.97;100.00
24486;BME280;13449;49.374;8.584;2023-04-16T08:33:42;100878.81;;;9.82;100.00
24486;BME280;13449;49.374;8.584;2023-04-16T08:36:08;100881.44;;;9.82;100.00
24486;BME280;13449;49.374;8.584;2023-04-16T08:38:35;100882.44;;;9.89;100.00
24486;BME280;13449;49.374;8.584;2023-04-16T08:41:04;100884.44;;;9.95;100.00
24486;BME280;13449;49.374;8.584;2023-04-16T08:43:33;100886.28;;;10.11;100.00
24486;BME280;13449;49.374;8.584;2023-04-16T08:46:04;100887.75;;;10.05;100.00
24486;BME280;13449;49.374;8.584;2023-04-16T08:48:32;100885.28;;;10.12;100.00
24486;BME280;13449;49.374;8.584;2023-04-16T08:51:01;100885.63;;;10.17;100.00
24486;BME280;13449;49.374;8.584;2023-04-16T08:53:57;100891.06;;;10.24;100.00
24486;BME280;13449;49.374;8.584;2023-04-16T08:56:25;100892.03;;;10.15;100.00
24486;BME280;13449;49.374;8.584;2023-04-16T08:58:53;100890.06;;;10.09;100.00
24486;BME280;13449;49.374;8.584;2023-04-16T09:01:21;100897.13;;;10.08;100.00
24486;BME280;13449;49.374;8.584;2023-04-16T09:03:48;100902.53;;;10.06;100.00
24486;BME280;13449;49.374;8.584;2023-04-16T09:06:15;100903.22;;;10.09;100.00
24486;BME280;13449;49.374;8.584;2023-04-16T09:08:46;100901.06;;;10.04;100.00
24486;BME280;13449;49.374;8.584;2023-04-16T09:11:16;100907.81;;;9.98;100.00
24486;BME280;13449;49.374;8.584;2023-04-16T09:13:43;100907.31;;;9.95;100.00
24486;BME280;13449;49.374;8.584;2023-04-16T09:16:10;100909.75;;;9.96;100.00
24486;BME280;13449;49.374;8.584;2023-04-16T09:18:37;100914.22;;;9.96;100.00
24486;BME280;13449;49.374;8.584;2023-04-16T09:21:04;100917.50;;;9.98;100.00
24486;BME280;13449;49.374;8.584;2023-04-16T09:23:33;100916.34;;;9.92;100.00
24486;BME280;13449;49.374;8.584;2023-04-16T09:26:03;100923.75;;;9.97;100.00
24486;BME280;13449;49.374;8.584;2023-04-16T09:28:44;100918.63;;;9.87;100.00
24486;BME280;13449;49.374;8.584;2023-04-16T09:31:16;100920.97;;;9.98;100.00
24486;BME280;13449;49.374;8.584;2023-04-16T09:36:28;100935.41;;;9.86;100.00
24486;BME280;13449;49.374;8.584;2023-04-16T09:38:57;100935.72;;;9.83;100.00
24486;BME280;13449;49.374;8.584;2023-04-16T09:41:25;100937.34;;;9.76;100.00
24486;BME280;13449;49.374;8.584;2023-04-16T09:43:58;100939.84;;;9.86;100.00
24486;BME280;13449;49.374;8.584;2023-04-16T09:46:29;100934.97;;;9.65;100.00
24486;BME280;13449;49.374;8.584;2023-04-16T09:48:56;100942.22;;;9.63;100.00
24486;BME280;13449;49.374;8.584;2023-04-16T09:51:23;100942.66;;;9.50;100.00
24486;BME280;13449;49.374;8.584;2023-04-16T09:53:52;100936.91;;;9.54;100.00
24486;BME280;13449;49.374;8.584;2023-04-16T09:56:23;100938.91;;;9.52;100.00
24486;BME280;13449;49.374;8.584;2023-04-16T09:58:56;100944.84;;;9.63;100.00
24486;BME280;13449;49.374;8.584;2023-04-16T10:01:24;100945.81;;;9.62;100.00
24486;BME280;13449;49.374;8.584;2023-04-16T10:03:53;100953.72;;;9.62;100.00
24486;BME280;13449;49.374;8.584;2023-04-16T10:06:22;100945.19;;;9.68;100.00
24486;BME280;13449;49.374;8.584;2023-04-16T10:08:55;100944.19;;;9.60;100.00
24486;BME280;13449;49.374;8.584;2023-04-16T10:11:22;100953.25;;;9.66;100.00
24486;BME280;13449;49.374;8.584;2023-04-16T10:13:52;100951.13;;;9.70;100.00
24486;BME280;13449;49.374;8.584;2023-04-16T10:16:18;100953.06;;;9.68;100.00
24486;BME280;13449;49.374;8.584;2023-04-16T10:18:47;100949.41;;;9.52;100.00
24486;BME280;13449;49.374;8.584;2023-04-16T10:21:13;100951.00;;;9.45;100.00
24486;BME280;13449;49.374;8.584;2023-04-16T10:23:42;100958.97;;;9.62;100.00
24486;BME280;13449;49.374;8.584;2023-04-16T10:26:09;100961.28;;;9.65;100.00
24486;BME280;13449;49.374;8.584;2023-04-16T10:28:36;100965.84;;;9.54;100.00
24486;BME280;13449;49.374;8.584;2023-04-16T10:31:06;100964.53;;;9.58;100.00
24486;BME280;13449;49.374;8.584;2023-04-16T10:33:38;100964.22;;;9.53;100.00
24486;BME280;13449;49.374;8.584;2023-04-16T10:36:11;100963.38;;;9.53;100.00
24486;BME280;13449;49.374;8.584;2023-04-16T10:41:11;100967.84;;;9.60;100.00
24486;BME280;13449;49.374;8.584;2023-04-16T10:43:42;100967.22;;;9.67;100.00
24486;BME280;13449;49.374;8.584;2023-04-16T10:46:29;100969.19;;;9.65;100.00
24486;BME280;13449;49.374;8.584;2023-04-16T10:49:01;100973.72;;;9.54;100.00
24486;BME280;13449;49.374;8.584;2023-04-16T10:51:30;100964.28;;;9.70;100.00
24486;BME280;13449;49.374;8.584;2023-04-16T10:56:39;100962.03;;;9.83;100.00
24486;BME280;13449;49.374;8.584;2023-04-16T10:59:12;100961.59;;;9.96;100.00
24486;BME280;13449;49.374;8.584;2023-04-16T11:01:44;100971.59;;;9.92;100.00
24486;BME280;13449;49.374;8.584;2023-04-16T11:07:06;100966.53;;;9.99;100.00
24486;BME280;13449;49.374;8.584;2023-04-16T11:12:22;100963.09;;;10.06;100.00
24486;BME280;13449;49.374;8.584;2023-04-16T11:14:49;100965.06;;;10.04;100.00
24486;BME280;13449;49.374;8.584;2023-04-16T11:17:17;100956.50;;;10.11;100.00
24486;BME280;13449;49.374;8.584;2023-04-16T11:19:45;100966.53;;;10.07;100.00
24486;BME280;13449;49.374;8.584;2023-04-16T11:22:14;100964.13;;;10.22;100.00
24486;BME280;13449;49.374;8.584;2023-04-16T11:24:45;100959.00;;;10.12;100.00
24486;BME280;13449;49.374;8.584;2023-04-16T11:27:13;100963.75;;;10.09;100.00
24486;BME280;13449;49.374;8.584;2023-04-16T11:29:41;100961.88;;;10.27;100.00
24486;BME280;13449;49.374;8.584;2023-04-16T11:32:07;100966.78;;;10.30;100.00
24486;BME280;13449;49.374;8.584;2023-04-16T11:34:42;100960.88;;;10.36;100.00
24486;BME280;13449;49.374;8.584;2023-04-16T11:37:11;100964.00;;;10.32;100.00
24486;BME280;13449;49.374;8.584;2023-04-16T11:39:49;100962.00;;;10.25;100.00
24486;BME280;13449;49.374;8.584;2023-04-16T11:42:22;100963.94;;;10.15;100.00
24486;BME280;13449;49.374;8.584;2023-04-16T11:44:56;100958.69;;;10.23;100.00
24486;BME280;13449;49.374;8.584;2023-04-16T11:47:23;100958.19;;;10.20;100.00
24486;BME280;13449;49.374;8.584;2023-04-16T11:49:50;100967.16;;;10.27;100.00
24486;BME280;13449;49.374;8.584;2023-04-16T11:52:31;100966.31;;;10.35;100.00
24486;BME280;13449;49.374;8.584;2023-04-16T11:54:58;100963.84;;;10.33;100.00
24486;BME280;13449;49.374;8.584;2023-04-16T11:57:29;100965.81;;;10.31;100.00
24486;BME280;13449;49.374;8.584;2023-04-16T11:59:59;100964.50;;;10.35;100.00
24486;BME280;13449;49.374;8.584;2023-04-16T12:02:37;100965.97;;;10.29;100.00
24486;BME280;13449;49.374;8.584;2023-04-16T12:05:33;100968.47;;;10.31;100.00
24486;BME280;13449;49.374;8.584;2023-04-16T12:08:02;100967.63;;;10.31;100.00
24486;BME280;13449;49.374;8.584;2023-04-16T12:10:31;100975.72;;;10.45;100.00
24486;BME280;13449;49.374;8.584;2023-04-16T12:13:13;100969.41;;;10.30;100.00
24486;BME280;13449;49.374;8.584;2023-04-16T12:18:16;100973.41;;;10.42;100.00
24486;BME280;13449;49.374;8.584;2023-04-16T12:20:44;100965.03;;;10.47;100.00
24486;BME280;13449;49.374;8.584;2023-04-16T12:23:33;100970.47;;;10.53;100.00
24486;BME280;13449;49.374;8.584;2023-04-16T12:26:06;100967.66;;;10.55;100.00
24486;BME280;13449;49.374;8.584;2023-04-16T12:28:36;100973.63;;;10.73;100.00
24486;BME280;13449;49.374;8.584;2023-04-16T12:31:06;100970.97;;;10.57;100.00
24486;BME280;13449;49.374;8.584;2023-04-16T12:33:33;100972.47;;;10.60;100.00
24486;BME280;13449;49.374;8.584;2023-04-16T12:35:59;100968.34;;;10.57;100.00
24486;BME280;13449;49.374;8.584;2023-04-16T12:38:32;100973.59;;;10.65;100.00
24486;BME280;13449;49.374;8.584;2023-04-16T12:40:58;100976.09;;;10.83;100.00
24486;BME280;13449;49.374;8.584;2023-04-16T12:43:27;100977.91;;;10.66;100.00
24486;BME280;13449;49.374;8.584;2023-04-16T12:45:54;100976.25;;;10.73;100.00
24486;BME280;13449;49.374;8.584;2023-04-16T12:48:21;100975.25;;;10.83;100.00
24486;BME280;13449;49.374;8.584;2023-04-16T12:50:47;100971.81;;;10.82;100.00
24486;BME280;13449;49.374;8.584;2023-04-16T12:53:14;100968.66;;;10.87;100.00
24486;BME280;13449;49.374;8.584;2023-04-16T12:55:40;100976.72;;;10.85;100.00
24486;BME280;13449;49.374;8.584;2023-04-16T12:58:07;100977.72;;;10.84;100.00
24486;BME280;13449;49.374;8.584;2023-04-16T13:00:37;100973.91;;;10.79;100.00
24486;BME280;13449;49.374;8.584;2023-04-16T13:03:04;100970.47;;;10.78;100.00
24486;BME280;13449;49.374;8.584;2023-04-16T13:05:30;100968.16;;;10.75;100.00
24486;BME280;13449;49.374;8.584;2023-04-16T13:08:00;100971.28;;;10.79;100.00
24486;BME280;13449;49.374;8.584;2023-04-16T13:10:26;100969.50;;;10.79;100.00